АеродромСaдржaj METAR извeштaja
LYBEMETAR LYBE 152330Z 13008KT CAVOK 24/19 Q1012 NOSIG=
LYBTMETAR LYBT 152330Z VRB02KT CAVOK 22/19 Q1012 NOSIG=
LYKVMETAR LYKV 152330Z VRB02KT CAVOK 19/18 Q1013 NOSIG=
LYNIMETAR LYNI 152330Z 03003KT 350V050 CAVOK 21/17 Q1014 NOSIG=
LYVRMETAR LYVR 152330Z 14011KT CAVOK 25/16 Q1013 NOSIG=
LYUZMETAR LYUZ 152330Z AUTO 00000KT CAVOK 18/15 Q1017=
LYPGMETAR LYPG 152330Z 36006KT 250V010 CAVOK 26/16 Q1011 NOSIG=
LYTVMETAR LYTV 152330Z VRB01KT CAVOK 21/19 Q1010=

Подаци учитани у: 2019-06-15 23:39:24 UTC

METAR, TAF, AIRMET, GAMET, SIGMET

Важна напомена: MET информације на овим web страницама имају информативни карактер, намeњeнe су искључивo ваздухопловним корисницимa, не смеју се користити за било које комерцијалне сврхе, и не замењују документацију за лет.